Accueil
METAR-TAF:

METAR-TAF

Aéroports :

Aéroport international de Berne

Berne, Suisse

latitude: 46-55N, longitude: 007-30E, altitude: 505 m

Observation

Le bulletin a été fait il y a 39 minutes, à 14:50 UTC
Vent 6 kt de ouest, variant entre sud-ouest et nord/nord-ouest
Température 14°C
Humidité 67%
Pression 1017 hPa
Visibilité 10 km ou plus
Quelques nuages à une hauteur de 2800 ft
Nuages épars à une hauteur de 6000 ft

METAR: LSZB 281450Z 26006KT 230V340 9999 FEW028 SCT060 14/08 Q1017 NOSIG

Heure: 16:29 (15:29 UTC)

Prévision

Le bulletin a été fait il y a 1 heure et 4 minutes, à 14:25 UTC
Prévision valable du 28 à 15 UTC au 28 à 24 UTC
Vent 10 kt de ouest
Visibilité 10 km ou plus
Quelques nuages à une hauteur de 2800 ft
Temporairement
du 28 à 17 UTC au 28 à 20 UTC
averses de pluie

TAF: LSZB 281425Z 2815/2824 28010KT 9999 FEW028 TEMPO 2817/2820 SHRA

Observations et prévisions météorologiques de plus de 4000 aéroports (messages METAR et TAF).

Les stations disponibles sont représentées par des disques jaunes et rouges sur la carte.

Passer la souris dessus pour voir le nom de la station.

Cliquer dessus pour voir les observations et prévisions météorologiques.

Pour changer de carte: cliquez sur les boutons verts avec une croix noire pour zoomer, sur le bouton vert avec un tiret pour effectuer un zoom arrière, ou sur les flèches vertes pour les cartes adjacentes.


METAR-TAF: